sensor_id;sensor_type;location;lat;lon;timestamp;temperature;humidity
1075;DHT22;526;51.392;12.448;2023-12-28T05:00:28;9.60;89.80
1075;DHT22;526;51.392;12.448;2023-12-28T05:02:54;9.60;90.20
1075;DHT22;526;51.392;12.448;2023-12-28T05:05:19;9.50;90.20
1075;DHT22;526;51.392;12.448;2023-12-28T05:07:45;9.50;90.80
1075;DHT22;526;51.392;12.448;2023-12-28T05:10:12;9.50;90.90
1075;DHT22;526;51.392;12.448;2023-12-28T05:12:37;9.60;91.20
1075;DHT22;526;51.392;12.448;2023-12-28T05:15:03;9.60;91.30
1075;DHT22;526;51.392;12.448;2023-12-28T05:17:29;9.60;91.60
1075;DHT22;526;51.392;12.448;2023-12-28T05:19:54;9.70;91.40
1075;DHT22;526;51.392;12.448;2023-12-28T05:22:28;9.80;91.60
1075;DHT22;526;51.392;12.448;2023-12-28T05:24:57;9.80;91.40
1075;DHT22;526;51.392;12.448;2023-12-28T05:27:25;9.80;91.40
1075;DHT22;526;51.392;12.448;2023-12-28T05:29:56;9.90;91.40
1075;DHT22;526;51.392;12.448;2023-12-28T05:32:21;9.90;91.60
1075;DHT22;526;51.392;12.448;2023-12-28T05:34:47;9.80;91.70
1075;DHT22;526;51.392;12.448;2023-12-28T05:37:17;9.80;91.80
1075;DHT22;526;51.392;12.448;2023-12-28T05:39:45;9.90;91.80
1075;DHT22;526;51.392;12.448;2023-12-28T05:42:11;9.90;92.10
1075;DHT22;526;51.392;12.448;2023-12-28T05:44:42;9.90;92.30
1075;DHT22;526;51.392;12.448;2023-12-28T05:47:08;10.00;92.20
1075;DHT22;526;51.392;12.448;2023-12-28T05:49:36;10.00;92.50
1075;DHT22;526;51.392;12.448;2023-12-28T05:52:04;10.00;93.10
1075;DHT22;526;51.392;12.448;2023-12-28T05:54:38;10.00;93.50
1075;DHT22;526;51.392;12.448;2023-12-28T05:57:06;10.00;93.60
1075;DHT22;526;51.392;12.448;2023-12-28T05:59:31;10.00;93.80
1075;DHT22;526;51.392;12.448;2023-12-28T06:02:01;10.00;94.10
1075;DHT22;526;51.392;12.448;2023-12-28T06:04:30;10.00;94.30
1075;DHT22;526;51.392;12.448;2023-12-28T06:07:06;10.00;94.70
1075;DHT22;526;51.392;12.448;2023-12-28T06:09:34;10.00;95.00
1075;DHT22;526;51.392;12.448;2023-12-28T06:12:08;10.00;95.40
1075;DHT22;526;51.392;12.448;2023-12-28T06:14:38;10.00;95.30
1075;DHT22;526;51.392;12.448;2023-12-28T06:17:06;10.00;95.60
1075;DHT22;526;51.392;12.448;2023-12-28T06:19:32;10.10;95.50
1075;DHT22;526;51.392;12.448;2023-12-28T06:22:06;10.10;95.60
1075;DHT22;526;51.392;12.448;2023-12-28T06:24:31;10.10;95.80
1075;DHT22;526;51.392;12.448;2023-12-28T06:27:05;10.00;96.10
1075;DHT22;526;51.392;12.448;2023-12-28T06:29:33;10.00;96.40
1075;DHT22;526;51.392;12.448;2023-12-28T06:31:58;10.00;96.80
1075;DHT22;526;51.392;12.448;2023-12-28T06:34:24;10.10;96.90
1075;DHT22;526;51.392;12.448;2023-12-28T06:36:50;10.10;97.10
1075;DHT22;526;51.392;12.448;2023-12-28T06:39:26;10.00;97.30
1075;DHT22;526;51.392;12.448;2023-12-28T06:41:54;10.00;97.30
1075;DHT22;526;51.392;12.448;2023-12-28T06:44:28;10.00;97.30
1075;DHT22;526;51.392;12.448;2023-12-28T06:46:56;10.00;97.30
1075;DHT22;526;51.392;12.448;2023-12-28T06:49:22;10.00;97.30
1075;DHT22;526;51.392;12.448;2023-12-28T06:51:50;10.00;97.30
1075;DHT22;526;51.392;12.448;2023-12-28T06:54:26;9.90;97.30
1075;DHT22;526;51.392;12.448;2023-12-28T06:56:51;9.90;97.30
1075;DHT22;526;51.392;12.448;2023-12-28T06:59:17;9.80;97.30
1075;DHT22;526;51.392;12.448;2023-12-28T07:01:43;9.90;97.30
1075;DHT22;526;51.392;12.448;2023-12-28T07:04:09;9.90;97.30
1075;DHT22;526;51.392;12.448;2023-12-28T07:06:35;9.90;97.30
1075;DHT22;526;51.392;12.448;2023-12-28T07:09:01;9.80;97.30
1075;DHT22;526;51.392;12.448;2023-12-28T07:11:27;9.80;97.30
1075;DHT22;526;51.392;12.448;2023-12-28T07:13:52;9.80;97.30
1075;DHT22;526;51.392;12.448;2023-12-28T07:16:18;9.80;97.30
1075;DHT22;526;51.392;12.448;2023-12-28T07:18:44;9.70;97.30
1075;DHT22;526;51.392;12.448;2023-12-28T07:21:09;9.70;97.30
1075;DHT22;526;51.392;12.448;2023-12-28T07:23:35;9.70;97.30
1075;DHT22;526;51.392;12.448;2023-12-28T07:26:01;9.70;97.30
1075;DHT22;526;51.392;12.448;2023-12-28T07:28:27;9.70;97.30
1075;DHT22;526;51.392;12.448;2023-12-28T07:30:53;9.70;97.30
1075;DHT22;526;51.392;12.448;2023-12-28T07:33:21;9.70;97.30
1075;DHT22;526;51.392;12.448;2023-12-28T07:35:47;9.70;97.30
1075;DHT22;526;51.392;12.448;2023-12-28T07:38:13;9.70;97.30
1075;DHT22;526;51.392;12.448;2023-12-28T07:40:38;9.70;97.30
1075;DHT22;526;51.392;12.448;2023-12-28T07:43:04;9.60;97.30
1075;DHT22;526;51.392;12.448;2023-12-28T07:45:29;9.60;97.30
1075;DHT22;526;51.392;12.448;2023-12-28T07:47:55;9.60;97.30
1075;DHT22;526;51.392;12.448;2023-12-28T07:50:21;9.60;97.30
1075;DHT22;526;51.392;12.448;2023-12-28T07:52:47;9.60;97.30
1075;DHT22;526;51.392;12.448;2023-12-28T07:55:16;9.50;97.30
1075;DHT22;526;51.392;12.448;2023-12-28T07:57:42;9.50;97.30
1075;DHT22;526;51.392;12.448;2023-12-28T08:00:08;9.50;97.30
1075;DHT22;526;51.392;12.448;2023-12-28T08:02:34;9.60;97.30
1075;DHT22;526;51.392;12.448;2023-12-28T08:05:00;9.60;97.30
1075;DHT22;526;51.392;12.448;2023-12-28T08:07:25;9.50;97.30
1075;DHT22;526;51.392;12.448;2023-12-28T08:09:51;9.50;97.30
1075;DHT22;526;51.392;12.448;2023-12-28T08:12:18;9.40;97.30
1075;DHT22;526;51.392;12.448;2023-12-28T08:14:46;9.40;97.30
1075;DHT22;526;51.392;12.448;2023-12-28T08:17:11;9.40;97.30
1075;DHT22;526;51.392;12.448;2023-12-28T08:19:37;9.40;97.30
1075;DHT22;526;51.392;12.448;2023-12-28T08:22:03;9.40;97.30
1075;DHT22;526;51.392;12.448;2023-12-28T08:24:28;9.40;97.30
1075;DHT22;526;51.392;12.448;2023-12-28T08:26:54;9.40;97.30
1075;DHT22;526;51.392;12.448;2023-12-28T08:29:24;9.40;97.30
1075;DHT22;526;51.392;12.448;2023-12-28T08:31:50;9.40;97.30
1075;DHT22;526;51.392;12.448;2023-12-28T08:34:15;9.40;97.30
1075;DHT22;526;51.392;12.448;2023-12-28T08:36:41;9.30;97.30
1075;DHT22;526;51.392;12.448;2023-12-28T08:39:07;9.30;97.30
1075;DHT22;526;51.392;12.448;2023-12-28T08:41:32;9.30;97.30
1075;DHT22;526;51.392;12.448;2023-12-28T08:43:58;9.30;97.30
1075;DHT22;526;51.392;12.448;2023-12-28T08:46:26;9.30;97.30
1075;DHT22;526;51.392;12.448;2023-12-28T08:48:51;9.30;97.30
1075;DHT22;526;51.392;12.448;2023-12-28T08:51:19;9.30;97.30
1075;DHT22;526;51.392;12.448;2023-12-28T08:53:46;9.30;97.30
1075;DHT22;526;51.392;12.448;2023-12-28T08:56:19;9.30;97.30
1075;DHT22;526;51.392;12.448;2023-12-28T08:58:54;9.30;97.30
1075;DHT22;526;51.392;12.448;2023-12-28T09:01:21;9.30;97.30
1075;DHT22;526;51.392;12.448;2023-12-28T09:03:51;9.30;97.30
1075;DHT22;526;51.392;12.448;2023-12-28T09:06:29;9.30;97.30
1075;DHT22;526;51.392;12.448;2023-12-28T09:09:10;9.30;97.30
1075;DHT22;526;51.392;12.448;2023-12-28T09:11:35;9.30;97.30
1075;DHT22;526;51.392;12.448;2023-12-28T09:14:08;9.20;97.30
1075;DHT22;526;51.392;12.448;2023-12-28T09:16:37;9.20;97.30
1075;DHT22;526;51.392;12.448;2023-12-28T09:19:07;9.20;97.30
1075;DHT22;526;51.392;12.448;2023-12-28T09:21:39;9.20;97.30
1075;DHT22;526;51.392;12.448;2023-12-28T09:24:07;9.20;97.30
1075;DHT22;526;51.392;12.448;2023-12-28T09:26:38;9.20;97.30
1075;DHT22;526;51.392;12.448;2023-12-28T09:29:04;9.20;97.30
1075;DHT22;526;51.392;12.448;2023-12-28T09:31:30;9.20;97.30
1075;DHT22;526;51.392;12.448;2023-12-28T09:34:06;9.30;97.30
1075;DHT22;526;51.392;12.448;2023-12-28T09:36:31;9.30;97.30
1075;DHT22;526;51.392;12.448;2023-12-28T09:38:59;9.30;97.30
1075;DHT22;526;51.392;12.448;2023-12-28T09:41:30;9.30;97.30
1075;DHT22;526;51.392;12.448;2023-12-28T09:44:11;9.30;97.30
1075;DHT22;526;51.392;12.448;2023-12-28T09:46:41;9.30;97.30
1075;DHT22;526;51.392;12.448;2023-12-28T09:49:07;9.30;97.30
1075;DHT22;526;51.392;12.448;2023-12-28T09:51:33;9.30;97.30
1075;DHT22;526;51.392;12.448;2023-12-28T09:53:58;9.30;97.30
1075;DHT22;526;51.392;12.448;2023-12-28T09:56:24;9.30;97.30
1075;DHT22;526;51.392;12.448;2023-12-28T09:58:53;9.30;97.30
1075;DHT22;526;51.392;12.448;2023-12-28T10:01:20;9.30;97.30
1075;DHT22;526;51.392;12.448;2023-12-28T10:03:46;9.40;97.30
1075;DHT22;526;51.392;12.448;2023-12-28T10:06:17;9.40;97.30
1075;DHT22;526;51.392;12.448;2023-12-28T10:08:47;9.40;97.30
1075;DHT22;526;51.392;12.448;2023-12-28T10:11:16;9.40;97.30
1075;DHT22;526;51.392;12.448;2023-12-28T10:13:45;9.50;97.30
1075;DHT22;526;51.392;12.448;2023-12-28T10:16:16;9.50;97.30
1075;DHT22;526;51.392;12.448;2023-12-28T10:18:45;9.50;97.30
1075;DHT22;526;51.392;12.448;2023-12-28T10:21:13;9.50;97.30
1075;DHT22;526;51.392;12.448;2023-12-28T10:23:47;9.50;97.30
1075;DHT22;526;51.392;12.448;2023-12-28T10:26:18;9.50;97.30
1075;DHT22;526;51.392;12.448;2023-12-28T10:28:44;9.50;97.30
1075;DHT22;526;51.392;12.448;2023-12-28T10:31:14;9.50;97.30
1075;DHT22;526;51.392;12.448;2023-12-28T10:33:42;9.50;97.30
1075;DHT22;526;51.392;12.448;2023-12-28T10:36:14;9.50;97.30
1075;DHT22;526;51.392;12.448;2023-12-28T10:38:41;9.50;97.30
1075;DHT22;526;51.392;12.448;2023-12-28T10:41:12;9.60;97.30
1075;DHT22;526;51.392;12.448;2023-12-28T10:43:48;9.60;97.30
1075;DHT22;526;51.392;12.448;2023-12-28T10:46:27;9.70;97.30
1075;DHT22;526;51.392;12.448;2023-12-28T10:49:05;9.70;97.30
1075;DHT22;526;51.392;12.448;2023-12-28T10:51:35;9.90;97.30
1075;DHT22;526;51.392;12.448;2023-12-28T10:56:49;10.00;97.30
1075;DHT22;526;51.392;12.448;2023-12-28T10:59:24;10.10;97.30
1075;DHT22;526;51.392;12.448;2023-12-28T11:01:55;10.20;97.30
1075;DHT22;526;51.392;12.448;2023-12-28T11:04:49;10.40;97.30
1075;DHT22;526;51.392;12.448;2023-12-28T11:07:23;10.60;97.30
1075;DHT22;526;51.392;12.448;2023-12-28T11:09:51;10.70;97.30
1075;DHT22;526;51.392;12.448;2023-12-28T11:12:25;10.80;97.30
1075;DHT22;526;51.392;12.448;2023-12-28T11:14:54;10.90;97.30
1075;DHT22;526;51.392;12.448;2023-12-28T11:17:22;10.90;97.30
1075;DHT22;526;51.392;12.448;2023-12-28T11:20:00;11.00;97.30
1075;DHT22;526;51.392;12.448;2023-12-28T11:22:37;11.00;97.30
1075;DHT22;526;51.392;12.448;2023-12-28T11:25:03;10.90;97.30
1075;DHT22;526;51.392;12.448;2023-12-28T11:27:36;10.90;97.30
1075;DHT22;526;51.392;12.448;2023-12-28T11:30:04;11.00;97.30
1075;DHT22;526;51.392;12.448;2023-12-28T11:32:32;10.90;97.30
1075;DHT22;526;51.392;12.448;2023-12-28T11:34:59;11.00;97.30
1075;DHT22;526;51.392;12.448;2023-12-28T11:37:26;11.00;97.30
1075;DHT22;526;51.392;12.448;2023-12-28T11:39:52;11.10;97.30
1075;DHT22;526;51.392;12.448;2023-12-28T11:42:22;11.20;97.00
1075;DHT22;526;51.392;12.448;2023-12-28T11:44:56;11.40;96.60
1075;DHT22;526;51.392;12.448;2023-12-28T11:47:25;11.70;96.40
1075;DHT22;526;51.392;12.448;2023-12-28T11:49:52;11.90;95.70
1075;DHT22;526;51.392;12.448;2023-12-28T11:52:37;12.00;94.80
1075;DHT22;526;51.392;12.448;2023-12-28T11:55:03;11.70;95.50
1075;DHT22;526;51.392;12.448;2023-12-28T11:57:30;11.90;95.40
1075;DHT22;526;51.392;12.448;2023-12-28T12:00:01;11.70;94.90
1075;DHT22;526;51.392;12.448;2023-12-28T12:02:27;11.80;95.30
1075;DHT22;526;51.392;12.448;2023-12-28T12:04:54;12.00;95.10
1075;DHT22;526;51.392;12.448;2023-12-28T12:07:20;12.00;94.60
1075;DHT22;526;51.392;12.448;2023-12-28T12:09:45;12.00;94.90
1075;DHT22;526;51.392;12.448;2023-12-28T12:12:11;12.30;94.60
1075;DHT22;526;51.392;12.448;2023-12-28T12:14:36;12.40;94.00
1075;DHT22;526;51.392;12.448;2023-12-28T12:17:02;12.40;93.50
1075;DHT22;526;51.392;12.448;2023-12-28T12:19:28;12.50;94.00
1075;DHT22;526;51.392;12.448;2023-12-28T12:21:55;12.70;93.30
1075;DHT22;526;51.392;12.448;2023-12-28T12:24:21;12.80;93.30
1075;DHT22;526;51.392;12.448;2023-12-28T12:26:48;13.20;93.00
1075;DHT22;526;51.392;12.448;2023-12-28T12:29:14;13.40;91.80
1075;DHT22;526;51.392;12.448;2023-12-28T12:31:40;13.40;91.60
1075;DHT22;526;51.392;12.448;2023-12-28T12:34:08;13.20;91.60
1075;DHT22;526;51.392;12.448;2023-12-28T12:36:34;13.30;91.70
1075;DHT22;526;51.392;12.448;2023-12-28T12:39:00;13.40;91.50
1075;DHT22;526;51.392;12.448;2023-12-28T12:41:26;13.70;91.70
1075;DHT22;526;51.392;12.448;2023-12-28T12:43:52;13.90;90.40
1075;DHT22;526;51.392;12.448;2023-12-28T12:46:17;13.80;89.60
1075;DHT22;526;51.392;12.448;2023-12-28T12:48:53;13.60;90.30
1075;DHT22;526;51.392;12.448;2023-12-28T12:51:21;13.30;91.10
1075;DHT22;526;51.392;12.448;2023-12-28T12:53:47;13.30;91.20
1075;DHT22;526;51.392;12.448;2023-12-28T12:56:13;13.40;91.10
1075;DHT22;526;51.392;12.448;2023-12-28T12:58:39;13.00;91.30
1075;DHT22;526;51.392;12.448;2023-12-28T13:01:04;12.80;92.10
1075;DHT22;526;51.392;12.448;2023-12-28T13:03:30;12.90;92.00
1075;DHT22;526;51.392;12.448;2023-12-28T13:05:55;12.80;92.00
1075;DHT22;526;51.392;12.448;2023-12-28T13:08:22;13.00;91.60
1075;DHT22;526;51.392;12.448;2023-12-28T13:10:47;13.10;91.60
1075;DHT22;526;51.392;12.448;2023-12-28T13:13:15;13.40;91.20
1075;DHT22;526;51.392;12.448;2023-12-28T13:15:40;13.70;90.70
1075;DHT22;526;51.392;12.448;2023-12-28T13:18:06;13.60;90.50
1075;DHT22;526;51.392;12.448;2023-12-28T13:20:31;13.50;90.30
1075;DHT22;526;51.392;12.448;2023-12-28T13:22:57;13.50;90.30
1075;DHT22;526;51.392;12.448;2023-12-28T13:25:22;13.50;90.40
1075;DHT22;526;51.392;12.448;2023-12-28T13:27:48;13.60;90.40
1075;DHT22;526;51.392;12.448;2023-12-28T13:30:14;13.60;90.20
1075;DHT22;526;51.392;12.448;2023-12-28T13:32:39;13.50;90.10
1075;DHT22;526;51.392;12.448;2023-12-28T13:35:05;13.50;90.50
1075;DHT22;526;51.392;12.448;2023-12-28T13:37:31;13.40;90.70
1075;DHT22;526;51.392;12.448;2023-12-28T13:39:56;13.50;90.30
1075;DHT22;526;51.392;12.448;2023-12-28T13:42:22;13.30;90.60
1075;DHT22;526;51.392;12.448;2023-12-28T13:44:48;13.20;90.80
1075;DHT22;526;51.392;12.448;2023-12-28T13:47:14;13.10;91.20
1075;DHT22;526;51.392;12.448;2023-12-28T13:49:39;13.10;91.30
1075;DHT22;526;51.392;12.448;2023-12-28T13:52:05;13.20;91.00
1075;DHT22;526;51.392;12.448;2023-12-28T13:54:31;13.30;91.00
1075;DHT22;526;51.392;12.448;2023-12-28T13:56:56;13.40;91.00
1075;DHT22;526;51.392;12.448;2023-12-28T13:59:24;13.20;91.00
1075;DHT22;526;51.392;12.448;2023-12-28T14:01:49;13.30;91.10
1075;DHT22;526;51.392;12.448;2023-12-28T14:04:15;13.30;91.10
1075;DHT22;526;51.392;12.448;2023-12-28T14:06:40;13.20;91.10
1075;DHT22;526;51.392;12.448;2023-12-28T14:09:06;13.40;91.00
1075;DHT22;526;51.392;12.448;2023-12-28T14:11:31;13.40;90.70
1075;DHT22;526;51.392;12.448;2023-12-28T14:13:57;13.40;90.70
1075;DHT22;526;51.392;12.448;2023-12-28T14:16:22;13.20;90.70
1075;DHT22;526;51.392;12.448;2023-12-28T14:18:48;12.90;91.50
1075;DHT22;526;51.392;12.448;2023-12-28T14:21:14;12.90;91.40
1075;DHT22;526;51.392;12.448;2023-12-28T14:23:40;12.90;91.50
1075;DHT22;526;51.392;12.448;2023-12-28T14:26:12;12.80;91.80
1075;DHT22;526;51.392;12.448;2023-12-28T14:28:39;12.90;91.60
1075;DHT22;526;51.392;12.448;2023-12-28T14:31:05;12.80;91.60
1075;DHT22;526;51.392;12.448;2023-12-28T14:33:30;12.60;91.90
1075;DHT22;526;51.392;12.448;2023-12-28T14:35:57;12.30;92.40
1075;DHT22;526;51.392;12.448;2023-12-28T14:38:23;12.00;93.10
1075;DHT22;526;51.392;12.448;2023-12-28T14:40:48;11.90;93.70
1075;DHT22;526;51.392;12.448;2023-12-28T14:43:17;11.60;94.30
1075;DHT22;526;51.392;12.448;2023-12-28T14:45:42;11.40;94.90
1075;DHT22;526;51.392;12.448;2023-12-28T14:48:08;11.30;95.40
1075;DHT22;526;51.392;12.448;2023-12-28T14:50:33;11.20;95.80
1075;DHT22;526;51.392;12.448;2023-12-28T14:53:00;11.00;96.20
1075;DHT22;526;51.392;12.448;2023-12-28T14:55:26;10.90;96.60
1075;DHT22;526;51.392;12.448;2023-12-28T14:57:53;10.80;96.90
1075;DHT22;526;51.392;12.448;2023-12-28T15:00:18;10.70;97.20
1075;DHT22;526;51.392;12.448;2023-12-28T15:02:44;10.60;97.30
1075;DHT22;526;51.392;12.448;2023-12-28T15:05:09;10.50;97.30
1075;DHT22;526;51.392;12.448;2023-12-28T15:07:37;10.40;97.30
1075;DHT22;526;51.392;12.448;2023-12-28T15:10:03;10.40;97.30
1075;DHT22;526;51.392;12.448;2023-12-28T15:12:29;10.40;97.30
1075;DHT22;526;51.392;12.448;2023-12-28T15:14:55;10.30;97.30
1075;DHT22;526;51.392;12.448;2023-12-28T15:17:21;10.30;97.30
1075;DHT22;526;51.392;12.448;2023-12-28T15:19:48;10.30;97.30
1075;DHT22;526;51.392;12.448;2023-12-28T15:22:13;10.30;97.30
1075;DHT22;526;51.392;12.448;2023-12-28T15:24:39;10.20;97.30
1075;DHT22;526;51.392;12.448;2023-12-28T15:27:05;10.20;97.30
1075;DHT22;526;51.392;12.448;2023-12-28T15:29:32;10.20;97.30
1075;DHT22;526;51.392;12.448;2023-12-28T15:31:58;10.10;97.30
1075;DHT22;526;51.392;12.448;2023-12-28T15:34:23;10.10;97.30
1075;DHT22;526;51.392;12.448;2023-12-28T15:36:49;10.00;97.30
1075;DHT22;526;51.392;12.448;2023-12-28T15:39:14;10.00;97.30
1075;DHT22;526;51.392;12.448;2023-12-28T15:41:41;10.00;97.30
1075;DHT22;526;51.392;12.448;2023-12-28T15:44:07;9.90;97.30
1075;DHT22;526;51.392;12.448;2023-12-28T15:46:33;9.90;97.30
1075;DHT22;526;51.392;12.448;2023-12-28T15:48:58;9.80;97.30
1075;DHT22;526;51.392;12.448;2023-12-28T15:51:24;9.80;97.30
1075;DHT22;526;51.392;12.448;2023-12-28T15:53:50;9.80;97.30
1075;DHT22;526;51.392;12.448;2023-12-28T15:56:16;9.80;97.30
1075;DHT22;526;51.392;12.448;2023-12-28T15:58:41;9.70;97.30
1075;DHT22;526;51.392;12.448;2023-12-28T16:01:08;9.70;97.30
1075;DHT22;526;51.392;12.448;2023-12-28T16:03:33;9.70;97.30
1075;DHT22;526;51.392;12.448;2023-12-28T16:05:58;9.70;97.30
1075;DHT22;526;51.392;12.448;2023-12-28T16:08:24;9.70;97.30
1075;DHT22;526;51.392;12.448;2023-12-28T16:10:50;9.70;97.30
1075;DHT22;526;51.392;12.448;2023-12-28T16:13:15;9.70;97.30
1075;DHT22;526;51.392;12.448;2023-12-28T16:15:41;9.70;97.30
1075;DHT22;526;51.392;12.448;2023-12-28T16:18:07;9.60;97.30
1075;DHT22;526;51.392;12.448;2023-12-28T16:20:33;9.60;97.30
1075;DHT22;526;51.392;12.448;2023-12-28T16:22:59;9.70;97.30
1075;DHT22;526;51.392;12.448;2023-12-28T16:25:24;9.60;97.30
1075;DHT22;526;51.392;12.448;2023-12-28T16:27:50;9.60;97.30
1075;DHT22;526;51.392;12.448;2023-12-28T16:30:15;9.60;97.30
1075;DHT22;526;51.392;12.448;2023-12-28T16:32:41;9.60;97.30
1075;DHT22;526;51.392;12.448;2023-12-28T16:35:09;9.60;97.30
1075;DHT22;526;51.392;12.448;2023-12-28T16:37:35;9.50;97.30
1075;DHT22;526;51.392;12.448;2023-12-28T16:40:03;9.50;97.30
1075;DHT22;526;51.392;12.448;2023-12-28T16:42:28;9.40;97.30
1075;DHT22;526;51.392;12.448;2023-12-28T16:44:54;9.40;97.30
1075;DHT22;526;51.392;12.448;2023-12-28T16:47:19;9.40;97.30
1075;DHT22;526;51.392;12.448;2023-12-28T16:49:45;9.40;97.30
1075;DHT22;526;51.392;12.448;2023-12-28T16:52:10;9.40;97.30
1075;DHT22;526;51.392;12.448;2023-12-28T16:54:38;9.30;97.30
1075;DHT22;526;51.392;12.448;2023-12-28T16:57:03;9.30;97.30
1075;DHT22;526;51.392;12.448;2023-12-28T16:59:29;9.30;97.30
1075;DHT22;526;51.392;12.448;2023-12-28T17:01:55;9.30;97.30
1075;DHT22;526;51.392;12.448;2023-12-28T17:04:21;9.30;97.30
1075;DHT22;526;51.392;12.448;2023-12-28T17:06:46;9.30;97.30
1075;DHT22;526;51.392;12.448;2023-12-28T17:09:12;9.20;97.30
1075;DHT22;526;51.392;12.448;2023-12-28T17:11:43;9.20;97.30
1075;DHT22;526;51.392;12.448;2023-12-28T17:14:10;9.20;97.30
1075;DHT22;526;51.392;12.448;2023-12-28T17:16:36;9.20;97.30
1075;DHT22;526;51.392;12.448;2023-12-28T17:19:02;9.10;97.30
1075;DHT22;526;51.392;12.448;2023-12-28T17:21:30;9.10;97.30
1075;DHT22;526;51.392;12.448;2023-12-28T17:23:59;9.10;97.30
1075;DHT22;526;51.392;12.448;2023-12-28T17:26:26;9.10;97.30
1075;DHT22;526;51.392;12.448;2023-12-28T17:29:03;9.10;97.30
1075;DHT22;526;51.392;12.448;2023-12-28T17:31:33;9.10;97.30
1075;DHT22;526;51.392;12.448;2023-12-28T17:33:59;9.10;97.30
1075;DHT22;526;51.392;12.448;2023-12-28T17:36:25;9.10;97.30
1075;DHT22;526;51.392;12.448;2023-12-28T17:38:59;9.10;97.30
1075;DHT22;526;51.392;12.448;2023-12-28T17:41:33;9.00;97.30
1075;DHT22;526;51.392;12.448;2023-12-28T17:44:13;9.00;97.30
1075;DHT22;526;51.392;12.448;2023-12-28T17:46:56;9.00;97.30
1075;DHT22;526;51.392;12.448;2023-12-28T17:49:27;9.00;97.30
1075;DHT22;526;51.392;12.448;2023-12-28T17:51:58;9.00;97.30
1075;DHT22;526;51.392;12.448;2023-12-28T17:54:24;9.00;97.30
1075;DHT22;526;51.392;12.448;2023-12-28T17:56:53;8.90;97.30
1075;DHT22;526;51.392;12.448;2023-12-28T17:59:20;8.90;97.30
1075;DHT22;526;51.392;12.448;2023-12-28T18:01:45;8.90;97.30
1075;DHT22;526;51.392;12.448;2023-12-28T18:04:12;8.90;97.30
1075;DHT22;526;51.392;12.448;2023-12-28T18:06:38;8.90;97.30
1075;DHT22;526;51.392;12.448;2023-12-28T18:09:04;9.00;97.30
1075;DHT22;526;51.392;12.448;2023-12-28T18:11:29;8.90;97.30
1075;DHT22;526;51.392;12.448;2023-12-28T18:13:55;9.00;97.30
1075;DHT22;526;51.392;12.448;2023-12-28T18:16:20;9.00;97.30
1075;DHT22;526;51.392;12.448;2023-12-28T18:18:48;8.90;97.30
1075;DHT22;526;51.392;12.448;2023-12-28T18:21:13;8.90;97.30
1075;DHT22;526;51.392;12.448;2023-12-28T18:23:39;9.00;97.30
1075;DHT22;526;51.392;12.448;2023-12-28T18:26:04;8.90;97.30
1075;DHT22;526;51.392;12.448;2023-12-28T18:28:30;8.90;97.30
1075;DHT22;526;51.392;12.448;2023-12-28T18:30:57;8.90;97.30
1075;DHT22;526;51.392;12.448;2023-12-28T18:33:22;8.90;97.30
1075;DHT22;526;51.392;12.448;2023-12-28T18:35:49;8.90;97.30
1075;DHT22;526;51.392;12.448;2023-12-28T18:38:15;8.90;97.30
1075;DHT22;526;51.392;12.448;2023-12-28T18:40:41;8.80;97.30
1075;DHT22;526;51.392;12.448;2023-12-28T18:43:06;8.80;97.30
1075;DHT22;526;51.392;12.448;2023-12-28T18:45:32;8.80;97.30
1075;DHT22;526;51.392;12.448;2023-12-28T18:47:57;8.80;97.30
1075;DHT22;526;51.392;12.448;2023-12-28T18:50:23;8.80;97.30
1075;DHT22;526;51.392;12.448;2023-12-28T18:52:49;8.80;97.30
1075;DHT22;526;51.392;12.448;2023-12-28T18:55:14;8.80;97.30
1075;DHT22;526;51.392;12.448;2023-12-28T18:57:40;8.80;97.30
1075;DHT22;526;51.392;12.448;2023-12-28T19:00:06;8.80;97.30
1075;DHT22;526;51.392;12.448;2023-12-28T19:02:32;8.80;97.30
1075;DHT22;526;51.392;12.448;2023-12-28T19:04:57;8.80;97.30
1075;DHT22;526;51.392;12.448;2023-12-28T19:07:23;8.80;97.30
1075;DHT22;526;51.392;12.448;2023-12-28T19:09:49;8.80;97.30
1075;DHT22;526;51.392;12.448;2023-12-28T19:12:14;8.80;97.30
1075;DHT22;526;51.392;12.448;2023-12-28T19:14:40;8.80;97.30
1075;DHT22;526;51.392;12.448;2023-12-28T19:17:06;8.80;97.30
1075;DHT22;526;51.392;12.448;2023-12-28T19:19:32;8.80;97.30
1075;DHT22;526;51.392;12.448;2023-12-28T19:21:58;8.90;97.30
1075;DHT22;526;51.392;12.448;2023-12-28T19:24:25;8.90;97.30
1075;DHT22;526;51.392;12.448;2023-12-28T19:26:50;8.80;97.30
1075;DHT22;526;51.392;12.448;2023-12-28T19:29:16;8.90;97.30
1075;DHT22;526;51.392;12.448;2023-12-28T19:31:41;8.90;97.30
1075;DHT22;526;51.392;12.448;2023-12-28T19:34:07;8.80;97.30
1075;DHT22;526;51.392;12.448;2023-12-28T19:36:32;8.80;97.30
1075;DHT22;526;51.392;12.448;2023-12-28T19:38:58;8.80;97.30
1075;DHT22;526;51.392;12.448;2023-12-28T19:41:23;8.80;97.30
1075;DHT22;526;51.392;12.448;2023-12-28T19:43:49;8.80;97.30
1075;DHT22;526;51.392;12.448;2023-12-28T19:46:16;8.80;97.30
1075;DHT22;526;51.392;12.448;2023-12-28T19:48:43;8.80;97.30
1075;DHT22;526;51.392;12.448;2023-12-28T19:51:09;8.80;97.30
1075;DHT22;526;51.392;12.448;2023-12-28T19:53:35;8.80;97.30
1075;DHT22;526;51.392;12.448;2023-12-28T19:56:01;8.80;97.30
1075;DHT22;526;51.392;12.448;2023-12-28T19:58:27;8.80;97.30
1075;DHT22;526;51.392;12.448;2023-12-28T20:00:53;8.80;97.30
1075;DHT22;526;51.392;12.448;2023-12-28T20:03:18;8.80;97.30
1075;DHT22;526;51.392;12.448;2023-12-28T20:05:44;8.80;97.30
1075;DHT22;526;51.392;12.448;2023-12-28T20:08:09;8.80;97.30
1075;DHT22;526;51.392;12.448;2023-12-28T20:10:35;8.70;97.30
1075;DHT22;526;51.392;12.448;2023-12-28T20:13:01;8.80;97.30
1075;DHT22;526;51.392;12.448;2023-12-28T20:15:30;8.80;97.30
1075;DHT22;526;51.392;12.448;2023-12-28T20:17:56;8.80;97.30
1075;DHT22;526;51.392;12.448;2023-12-28T20:20:21;8.90;97.30
1075;DHT22;526;51.392;12.448;2023-12-28T20:22:47;8.90;97.30
1075;DHT22;526;51.392;12.448;2023-12-28T20:25:13;8.90;97.30
1075;DHT22;526;51.392;12.448;2023-12-28T20:27:40;8.90;97.30
1075;DHT22;526;51.392;12.448;2023-12-28T20:30:06;8.90;97.30
1075;DHT22;526;51.392;12.448;2023-12-28T20:32:31;8.80;97.30
1075;DHT22;526;51.392;12.448;2023-12-28T20:34:57;8.80;97.30
1075;DHT22;526;51.392;12.448;2023-12-28T20:37:23;8.90;97.30
1075;DHT22;526;51.392;12.448;2023-12-28T20:39:48;8.90;97.30
1075;DHT22;526;51.392;12.448;2023-12-28T20:42:14;8.90;97.30
1075;DHT22;526;51.392;12.448;2023-12-28T20:44:39;8.80;97.30
1075;DHT22;526;51.392;12.448;2023-12-28T20:47:05;8.90;97.30
1075;DHT22;526;51.392;12.448;2023-12-28T20:49:31;8.90;97.30
1075;DHT22;526;51.392;12.448;2023-12-28T20:51:57;8.90;97.30
1075;DHT22;526;51.392;12.448;2023-12-28T20:54:22;8.80;97.30
1075;DHT22;526;51.392;12.448;2023-12-28T20:56:48;8.80;97.30
1075;DHT22;526;51.392;12.448;2023-12-28T20:59:14;8.70;97.30
1075;DHT22;526;51.392;12.448;2023-12-28T21:01:40;8.70;97.30
1075;DHT22;526;51.392;12.448;2023-12-28T21:04:06;8.80;97.30
1075;DHT22;526;51.392;12.448;2023-12-28T21:06:31;8.80;97.30
1075;DHT22;526;51.392;12.448;2023-12-28T21:08:57;8.80;97.30
1075;DHT22;526;51.392;12.448;2023-12-28T21:11:22;8.80;97.30
1075;DHT22;526;51.392;12.448;2023-12-28T21:13:48;8.80;97.30